Mill Spring, Missouri
Current Conditions -  °F | °C
As of 11:53 PM on Thursday 27 Nov 2014 (Local Time) from KPOF Reporting Station
Clear Clear  
Wind Chill: -2°   Ceiling: Unl
Heat Index: -2°   Visibility: 7mi
Dew Point: -4°   Wind: 0mph
Humidity: 85%   Direction: NA
Pressure: 30.43"   Gusts: NA
Location:  37.06°N, 90.68°W
Report Text: KPOF 280553Z AUTO 00000KT 7SM CLR M02/M04 A3043 RMK AO2 SLP310 T10171039 10006 21022 400611022 58010
Loading
Personal Weather Stations






























Interactive Weather Map New forecast layout! Learn more

10-Day Weather Forecast

Advertisements
Track Severe Weather on mobile